createdAt,value
2018-12-12T00:01:29.929Z,80.94
2018-12-12T00:03:57.853Z,81.24
2018-12-12T00:06:25.386Z,81.66
2018-12-12T00:08:53.014Z,81.60
2018-12-12T00:11:20.604Z,81.14
2018-12-12T00:13:48.137Z,81.22
2018-12-12T00:16:15.726Z,81.23
2018-12-12T00:18:44.298Z,81.83
2018-12-12T00:21:11.820Z,82.18
2018-12-12T00:23:39.381Z,82.14
2018-12-12T00:26:07.313Z,82.78
2018-12-12T00:28:34.861Z,82.65
2018-12-12T00:31:02.423Z,82.66
2018-12-12T00:33:29.984Z,82.23
2018-12-12T00:35:57.533Z,81.43
2018-12-12T00:38:25.086Z,81.88
2018-12-12T00:40:52.619Z,82.14
2018-12-12T00:43:20.537Z,82.76
2018-12-12T00:45:48.107Z,81.71
2018-12-12T00:48:15.666Z,81.48
2018-12-12T00:50:43.207Z,81.20
2018-12-12T00:53:10.793Z,80.98
2018-12-12T00:55:38.346Z,81.35
2018-12-12T00:58:05.902Z,81.60
2018-12-12T01:00:33.468Z,81.74
2018-12-12T01:03:01.016Z,81.93
2018-12-12T01:05:28.585Z,81.99
2018-12-12T01:07:56.158Z,81.81
2018-12-12T01:10:23.701Z,82.08
2018-12-12T01:12:51.242Z,83.14
2018-12-12T01:15:19.029Z,83.42
2018-12-12T01:17:46.589Z,83.62
2018-12-12T01:20:14.289Z,83.75
2018-12-12T01:22:41.841Z,83.70
2018-12-12T01:25:09.392Z,83.46
2018-12-12T01:27:36.958Z,83.60
2018-12-12T01:30:04.602Z,83.50
2018-12-12T01:32:33.177Z,83.11
2018-12-12T01:35:01.030Z,82.44
2018-12-12T01:37:28.626Z,81.93
2018-12-12T01:39:56.404Z,82.70
2018-12-12T01:42:23.975Z,83.07
2018-12-12T01:44:51.541Z,82.50
2018-12-12T01:47:19.064Z,82.47
2018-12-12T01:49:46.610Z,82.16
2018-12-12T01:52:14.153Z,82.71
2018-12-12T01:54:41.733Z,83.15
2018-12-12T01:57:09.303Z,83.45
2018-12-12T01:59:36.838Z,83.02
2018-12-12T02:02:04.657Z,83.04
2018-12-12T02:04:32.344Z,83.39
2018-12-12T02:06:59.869Z,83.03
2018-12-12T02:09:27.769Z,83.10
2018-12-12T02:11:55.382Z,82.93
2018-12-12T02:14:23.009Z,82.87
2018-12-12T02:16:50.554Z,83.21
2018-12-12T02:19:18.076Z,83.08
2018-12-12T02:21:45.640Z,82.76
2018-12-12T02:24:13.178Z,83.39
2018-12-12T02:26:40.822Z,82.24
2018-12-12T02:29:08.370Z,81.71
2018-12-12T02:31:35.899Z,82.26
2018-12-12T02:34:03.430Z,82.99
2018-12-12T02:36:30.965Z,82.59
2018-12-12T02:38:58.542Z,81.85
2018-12-12T02:41:26.450Z,81.55
2018-12-12T02:43:54.148Z,82.17
2018-12-12T02:46:21.670Z,82.93
2018-12-12T02:48:50.282Z,83.03
2018-12-12T02:51:17.834Z,83.39
2018-12-12T02:53:45.366Z,83.14
2018-12-12T02:56:13.326Z,83.41
2018-12-12T02:58:40.860Z,82.86
2018-12-12T03:01:08.388Z,82.17
2018-12-12T03:03:35.944Z,82.70
2018-12-12T03:06:03.476Z,83.05
2018-12-12T03:08:31.350Z,83.33
2018-12-12T03:10:58.947Z,82.49
2018-12-12T03:13:26.473Z,82.07
2018-12-12T03:15:54.031Z,83.13
2018-12-12T03:18:21.558Z,83.14
2018-12-12T03:20:49.117Z,83.65
2018-12-12T03:23:16.684Z,83.46
2018-12-12T03:25:44.236Z,83.43
2018-12-12T03:28:12.363Z,83.63
2018-12-12T03:30:39.924Z,83.41
2018-12-12T03:33:07.453Z,83.27
2018-12-12T03:35:34.979Z,82.60
2018-12-12T03:38:02.875Z,83.00
2018-12-12T03:40:30.755Z,83.04
2018-12-12T03:42:58.454Z,83.24
2018-12-12T03:45:26.022Z,83.22
2018-12-12T03:47:53.580Z,83.38
2018-12-12T03:50:21.128Z,82.90
2018-12-12T03:52:48.669Z,83.47
2018-12-12T03:55:16.220Z,83.64
2018-12-12T03:57:43.764Z,83.89
2018-12-12T04:00:11.285Z,83.27
2018-12-12T04:02:38.830Z,82.37
2018-12-12T04:05:06.729Z,82.33
2018-12-12T04:07:34.328Z,83.05
2018-12-12T04:10:02.757Z,83.46
2018-12-12T04:12:30.318Z,83.74
2018-12-12T04:14:57.902Z,83.91
2018-12-12T04:17:25.517Z,83.73
2018-12-12T04:19:53.087Z,83.79
2018-12-12T04:22:20.901Z,84.00
2018-12-12T04:24:48.960Z,83.44
2018-12-12T04:27:16.507Z,83.98
2018-12-12T04:29:44.077Z,83.36
2018-12-12T04:32:11.633Z,83.67
2018-12-12T04:34:39.178Z,84.34
2018-12-12T04:37:07.055Z,84.12
2018-12-12T04:39:34.661Z,84.40
2018-12-12T04:42:02.230Z,83.95
2018-12-12T04:44:29.782Z,84.38
2018-12-12T04:46:57.341Z,84.03
2018-12-12T04:49:24.894Z,84.36
2018-12-12T04:51:52.450Z,84.04
2018-12-12T04:54:20.018Z,83.34
2018-12-12T04:56:47.566Z,83.30
2018-12-12T04:59:15.362Z,83.91
2018-12-12T05:01:42.910Z,83.38
2018-12-12T05:04:10.449Z,83.37
2018-12-12T05:06:38.005Z,83.61
2018-12-12T05:09:06.103Z,83.16
2018-12-12T05:11:33.650Z,82.96
2018-12-12T05:14:01.568Z,83.05
2018-12-12T05:16:29.104Z,82.56
2018-12-12T05:18:57.769Z,82.21
2018-12-12T05:21:25.301Z,81.12
2018-12-12T05:23:52.853Z,80.94
2018-12-12T05:26:20.460Z,81.27
2018-12-12T05:28:48.054Z,80.72
2018-12-12T05:31:15.650Z,81.02
2018-12-12T05:33:43.310Z,80.44
2018-12-12T05:36:10.886Z,80.49
2018-12-12T05:38:38.647Z,80.59
2018-12-12T05:41:06.215Z,80.47
2018-12-12T05:43:33.777Z,80.47
2018-12-12T05:46:01.409Z,81.25
2018-12-12T05:48:30.005Z,81.84
2018-12-12T05:50:57.562Z,82.06
2018-12-12T05:53:26.049Z,82.25
2018-12-12T05:55:53.714Z,82.51
2018-12-12T05:58:21.256Z,83.31
2018-12-12T06:00:48.840Z,83.16
2018-12-12T06:03:16.437Z,83.73
2018-12-12T06:05:44.002Z,83.56
2018-12-12T06:08:12.622Z,83.44
2018-12-12T06:10:40.282Z,83.48
2018-12-12T06:13:07.841Z,83.67
2018-12-12T06:15:35.391Z,84.23
2018-12-12T06:18:02.970Z,84.23
2018-12-12T06:20:30.888Z,84.42
2018-12-12T06:22:58.446Z,85.11
2018-12-12T06:25:26.014Z,85.34
2018-12-12T06:27:53.598Z,85.31
2018-12-12T06:30:21.333Z,85.62
2018-12-12T06:32:48.905Z,85.72
2018-12-12T06:35:16.485Z,84.89
2018-12-12T06:37:44.057Z,85.04
2018-12-12T06:40:11.624Z,85.52
2018-12-12T06:42:39.177Z,84.71
2018-12-12T06:45:06.764Z,85.04
2018-12-12T06:47:34.331Z,84.62
2018-12-12T06:50:02.067Z,84.42
2018-12-12T06:52:29.784Z,84.75
2018-12-12T06:54:57.322Z,84.54
2018-12-12T06:57:25.402Z,84.86
2018-12-12T06:59:53.164Z,84.46
2018-12-12T07:02:20.725Z,84.59
2018-12-12T07:04:48.533Z,84.76
2018-12-12T07:07:16.223Z,84.05
2018-12-12T07:09:44.320Z,84.29
2018-12-12T07:12:11.946Z,83.87
2018-12-12T07:14:39.484Z,84.28
2018-12-12T07:17:07.094Z,83.64
2018-12-12T07:19:34.735Z,83.74
2018-12-12T07:22:02.313Z,83.66
2018-12-12T07:24:29.905Z,83.55
2018-12-12T07:26:57.465Z,83.58
2018-12-12T07:29:25.028Z,83.29
2018-12-12T07:31:52.681Z,83.21
2018-12-12T07:34:20.328Z,83.74
2018-12-12T07:36:48.058Z,83.54
2018-12-12T07:39:18.056Z,83.70
2018-12-12T07:41:45.255Z,83.89
2018-12-12T07:44:12.816Z,83.89
2018-12-12T07:46:40.750Z,83.62
2018-12-12T07:49:08.591Z,83.70
2018-12-12T07:51:36.161Z,84.04
2018-12-12T07:54:03.750Z,83.77
2018-12-12T07:56:31.428Z,83.72
2018-12-12T07:58:59.186Z,83.85
2018-12-12T08:01:27.058Z,83.62
2018-12-12T08:03:54.685Z,83.40
2018-12-12T08:06:22.315Z,83.45
2018-12-12T08:08:49.974Z,83.72
2018-12-12T08:11:17.581Z,83.90
2018-12-12T08:13:45.134Z,83.78
2018-12-12T08:16:12.845Z,83.85
2018-12-12T08:18:40.700Z,84.06
2018-12-12T08:21:08.289Z,83.69
2018-12-12T08:23:36.225Z,84.04
2018-12-12T08:26:03.926Z,83.97
2018-12-12T08:28:31.526Z,83.69
2018-12-12T08:30:59.118Z,83.58
2018-12-12T08:33:26.663Z,83.80
2018-12-12T08:35:54.237Z,83.37
2018-12-12T08:38:21.833Z,83.27
2018-12-12T08:40:49.399Z,83.44
2018-12-12T08:43:16.952Z,82.99
2018-12-12T08:45:44.514Z,82.48
2018-12-12T08:48:12.200Z,82.53
2018-12-12T08:50:39.814Z,82.06
2018-12-12T08:53:07.650Z,82.09
2018-12-12T08:55:35.275Z,81.47
2018-12-12T08:58:02.906Z,78.67
2018-12-12T09:00:30.858Z,78.19
2018-12-12T09:02:58.423Z,76.87
2018-12-12T09:05:25.975Z,76.34
2018-12-12T09:07:53.794Z,76.23
2018-12-12T09:10:21.427Z,76.31
2018-12-12T09:12:49.006Z,77.17
2018-12-12T09:15:16.589Z,78.83
2018-12-12T09:17:44.198Z,79.75
2018-12-12T09:20:11.752Z,80.11
2018-12-12T09:22:39.315Z,80.66
2018-12-12T09:25:07.035Z,80.44
2018-12-12T09:27:34.606Z,80.90
2018-12-12T09:30:02.199Z,81.28
2018-12-12T09:32:29.771Z,81.66
2018-12-12T09:34:57.356Z,81.55
2018-12-12T09:37:24.921Z,82.39
2018-12-12T09:39:52.522Z,82.62
2018-12-12T09:42:20.479Z,82.04
2018-12-12T09:44:48.027Z,81.82
2018-12-12T09:47:15.634Z,82.12
2018-12-12T09:49:43.215Z,82.98
2018-12-12T09:52:10.815Z,83.26
2018-12-12T09:54:38.386Z,82.98
2018-12-12T09:57:05.978Z,83.07
2018-12-12T09:59:33.528Z,83.50
2018-12-12T10:02:01.223Z,83.34
2018-12-12T10:04:28.749Z,83.32
2018-12-12T10:06:56.345Z,83.24
2018-12-12T10:09:24.078Z,83.06
2018-12-12T10:11:51.673Z,82.74
2018-12-12T10:14:19.212Z,82.89
2018-12-12T10:16:46.789Z,82.66
2018-12-12T10:19:14.635Z,82.93
2018-12-12T10:21:42.859Z,82.57
2018-12-12T10:24:10.446Z,82.73
2018-12-12T10:26:38.182Z,82.75
2018-12-12T10:29:05.828Z,82.33
2018-12-12T10:31:33.647Z,82.91
2018-12-12T10:34:01.393Z,82.98
2018-12-12T10:36:29.729Z,83.15
2018-12-12T10:38:57.294Z,83.27
2018-12-12T10:41:25.167Z,83.37
2018-12-12T10:43:52.714Z,82.65
2018-12-12T10:46:20.289Z,82.58
2018-12-12T10:48:47.841Z,83.10
2018-12-12T10:51:15.420Z,83.19
2018-12-12T10:53:43.084Z,82.23
2018-12-12T10:56:10.692Z,81.99
2018-12-12T10:58:38.390Z,82.27
2018-12-12T11:01:11.882Z,81.52
2018-12-12T11:03:44.227Z,81.68
2018-12-12T11:06:10.217Z,81.73
2018-12-12T11:08:37.802Z,81.96
2018-12-12T11:11:05.462Z,81.84
2018-12-12T11:13:33.366Z,82.57
2018-12-12T11:16:00.981Z,82.31
2018-12-12T11:18:28.546Z,82.18
2018-12-12T11:20:56.161Z,82.40
2018-12-12T11:23:24.012Z,82.82
2018-12-12T11:25:51.581Z,82.21
2018-12-12T11:28:19.225Z,81.99
2018-12-12T11:30:46.806Z,81.10
2018-12-12T11:33:14.440Z,80.76
2018-12-12T11:35:42.153Z,79.98
2018-12-12T11:38:09.730Z,79.16
2018-12-12T11:40:37.297Z,78.15
2018-12-12T11:43:04.941Z,77.38
2018-12-12T11:45:33.922Z,76.40
2018-12-12T11:48:01.628Z,75.75
2018-12-12T11:50:29.203Z,75.59
2018-12-12T11:53:08.113Z,75.89
2018-12-12T11:55:35.690Z,76.21
2018-12-12T11:58:03.393Z,76.56
2018-12-12T12:00:31.052Z,77.10
2018-12-12T12:02:58.637Z,76.69
2018-12-12T12:05:26.264Z,78.18
2018-12-12T12:07:53.817Z,78.99
2018-12-12T12:10:21.385Z,79.95
2018-12-12T12:12:49.256Z,79.99
2018-12-12T12:15:16.866Z,80.79
2018-12-12T12:17:44.474Z,81.17
2018-12-12T12:20:12.429Z,81.22
2018-12-12T12:22:39.967Z,81.65
2018-12-12T12:25:07.559Z,82.21
2018-12-12T12:27:35.228Z,82.30
2018-12-12T12:30:03.130Z,82.15
2018-12-12T12:32:30.765Z,82.29
2018-12-12T12:34:58.445Z,82.79
2018-12-12T12:37:26.036Z,83.33
2018-12-12T12:39:53.593Z,83.86
2018-12-12T12:42:21.169Z,83.90
2018-12-12T12:44:48.806Z,83.65
2018-12-12T12:47:16.368Z,83.93
2018-12-12T12:49:43.953Z,83.48
2018-12-12T12:52:11.510Z,83.17
2018-12-12T12:54:39.384Z,82.76
2018-12-12T12:57:07.457Z,82.61
2018-12-12T12:59:35.017Z,82.44
2018-12-12T13:02:02.590Z,81.54
2018-12-12T13:04:30.205Z,81.55
2018-12-12T13:06:57.766Z,82.42
2018-12-12T13:09:25.333Z,82.51
2018-12-12T13:11:52.998Z,82.59
2018-12-12T13:14:20.678Z,83.11
2018-12-12T13:16:48.375Z,82.67
2018-12-12T13:19:15.939Z,82.56
2018-12-12T13:21:43.976Z,82.71
2018-12-12T13:24:11.526Z,82.35
2018-12-12T13:26:39.106Z,82.77
2018-12-12T13:29:07.409Z,83.48
2018-12-12T13:31:34.994Z,84.65
2018-12-12T13:34:02.674Z,84.27
2018-12-12T13:36:30.592Z,84.31
2018-12-12T13:38:58.145Z,84.73
2018-12-12T13:41:25.689Z,85.37
2018-12-12T13:43:53.380Z,85.28
2018-12-12T13:46:20.951Z,84.83
2018-12-12T13:48:48.524Z,84.93
2018-12-12T13:51:16.084Z,84.78
2018-12-12T13:53:43.667Z,84.83
2018-12-12T13:56:11.214Z,84.82
2018-12-12T13:58:38.805Z,85.08
2018-12-12T14:01:06.485Z,85.36
2018-12-12T14:03:34.064Z,85.46
2018-12-12T14:06:01.921Z,85.54
2018-12-12T14:08:29.487Z,85.19
2018-12-12T14:10:57.082Z,85.41
2018-12-12T14:13:24.666Z,85.17
2018-12-12T14:15:52.834Z,84.81
2018-12-12T14:18:20.419Z,85.00
2018-12-12T14:20:48.006Z,85.04
2018-12-12T14:23:15.746Z,85.80
2018-12-12T14:25:43.352Z,85.71
2018-12-12T14:28:10.909Z,85.91
2018-12-12T14:30:38.519Z,86.23
2018-12-12T14:33:06.749Z,86.64
2018-12-12T14:35:34.309Z,87.16
2018-12-12T14:38:01.931Z,86.57
2018-12-12T14:40:29.494Z,86.10
2018-12-12T14:42:57.073Z,86.47
2018-12-12T14:45:24.674Z,86.20
2018-12-12T14:47:52.230Z,86.50
2018-12-12T14:50:19.850Z,86.58
2018-12-12T14:52:47.409Z,86.59
2018-12-12T14:55:15.147Z,86.63
2018-12-12T14:57:43.733Z,86.74
2018-12-12T15:00:11.376Z,86.84
2018-12-12T15:02:38.959Z,86.99
2018-12-12T15:05:06.689Z,86.36
2018-12-12T15:07:34.273Z,86.45
2018-12-12T15:10:02.978Z,86.62
2018-12-12T15:12:30.623Z,86.89
2018-12-12T15:14:58.325Z,87.44
2018-12-12T15:17:26.219Z,87.63
2018-12-12T15:19:53.798Z,87.70
2018-12-12T15:22:21.663Z,87.59
2018-12-12T15:24:49.219Z,87.35
2018-12-12T15:27:16.837Z,87.28
2018-12-12T15:29:44.378Z,87.19
2018-12-12T15:32:12.290Z,87.37
2018-12-12T15:34:42.381Z,86.89
2018-12-12T15:37:09.444Z,87.46
2018-12-12T15:39:37.036Z,87.11
2018-12-12T15:42:04.596Z,87.21
2018-12-12T15:44:32.513Z,87.16
2018-12-12T15:47:00.128Z,87.32
2018-12-12T15:49:27.704Z,87.39
2018-12-12T15:51:55.290Z,87.21
2018-12-12T15:54:22.900Z,87.50
2018-12-12T15:56:50.587Z,87.30
2018-12-12T15:59:18.166Z,87.27
2018-12-12T16:01:46.826Z,87.26
2018-12-12T16:04:14.414Z,87.13
2018-12-12T16:06:42.004Z,87.34
2018-12-12T16:09:09.577Z,87.54
2018-12-12T16:11:37.129Z,86.95
2018-12-12T16:14:04.738Z,86.98
2018-12-12T16:16:32.328Z,87.64
2018-12-12T16:18:59.969Z,86.92
2018-12-12T16:21:27.552Z,87.33
2018-12-12T16:23:55.145Z,87.52
2018-12-12T16:26:22.821Z,87.51
2018-12-12T16:28:50.383Z,86.76
2018-12-12T16:31:17.973Z,86.88
2018-12-12T16:33:45.550Z,86.85
2018-12-12T16:36:13.137Z,87.11
2018-12-12T16:38:40.726Z,87.41
2018-12-12T16:41:09.365Z,87.75
2018-12-12T16:43:36.952Z,87.87
2018-12-12T16:46:04.522Z,87.37
2018-12-12T16:48:32.196Z,87.81
2018-12-12T16:50:59.779Z,87.43
2018-12-12T16:53:28.326Z,87.79
2018-12-12T16:55:55.948Z,87.70
2018-12-12T16:58:23.554Z,87.88
2018-12-12T17:00:51.144Z,88.13
2018-12-12T17:03:18.789Z,87.63
2018-12-12T17:05:46.390Z,88.05
2018-12-12T17:08:13.959Z,87.86
2018-12-12T17:10:41.527Z,88.51
2018-12-12T17:13:09.132Z,88.49
2018-12-12T17:15:36.717Z,88.89
2018-12-12T17:18:04.303Z,88.38
2018-12-12T17:20:31.895Z,88.25
2018-12-12T17:22:59.522Z,88.27
2018-12-12T17:25:27.214Z,88.49
2018-12-12T17:27:54.852Z,88.31
2018-12-12T17:30:22.588Z,88.19
2018-12-12T17:32:50.162Z,88.18
2018-12-12T17:35:18.024Z,88.57
2018-12-12T17:37:45.613Z,88.82
2018-12-12T17:40:13.200Z,88.05
2018-12-12T17:42:40.813Z,88.33
2018-12-12T17:45:08.699Z,88.41
2018-12-12T17:47:36.294Z,88.73
2018-12-12T17:50:04.595Z,88.78
2018-12-12T17:52:32.230Z,88.80
2018-12-12T17:54:59.861Z,88.80
2018-12-12T17:57:27.483Z,88.83
2018-12-12T17:59:55.849Z,88.76
2018-12-12T18:02:23.436Z,89.08
2018-12-12T18:04:51.018Z,89.42
2018-12-12T18:07:18.596Z,89.34
2018-12-12T18:09:46.185Z,89.45
2018-12-12T18:12:13.745Z,89.39
2018-12-12T18:14:41.295Z,90.00
2018-12-12T18:17:08.929Z,89.53
2018-12-12T18:19:36.516Z,89.82
2018-12-12T18:22:04.134Z,89.48
2018-12-12T18:24:31.748Z,89.38
2018-12-12T18:26:59.343Z,89.65
2018-12-12T18:29:27.190Z,89.61
2018-12-12T18:31:54.836Z,89.45
2018-12-12T18:34:22.453Z,89.75
2018-12-12T18:36:50.192Z,89.41
2018-12-12T18:39:17.744Z,90.06
2018-12-12T18:41:45.713Z,89.84
2018-12-12T18:44:13.321Z,90.21
2018-12-12T18:46:40.935Z,90.26
2018-12-12T18:49:08.565Z,89.88
2018-12-12T18:51:36.176Z,90.03
2018-12-12T18:54:03.815Z,89.85
2018-12-12T18:56:31.433Z,90.17
2018-12-12T18:58:58.996Z,90.23
2018-12-12T19:01:26.585Z,89.87
2018-12-12T19:03:54.156Z,90.21
2018-12-12T19:06:21.745Z,89.90
2018-12-12T19:08:49.364Z,90.02
2018-12-12T19:11:16.973Z,90.37
2018-12-12T19:13:44.559Z,90.43
2018-12-12T19:16:12.255Z,90.84
2018-12-12T19:18:39.881Z,90.58
2018-12-12T19:21:07.521Z,90.35
2018-12-12T19:23:35.394Z,89.94
2018-12-12T19:26:03.306Z,90.61
2018-12-12T19:28:30.925Z,90.33
2018-12-12T19:30:58.529Z,90.73
2018-12-12T19:33:26.159Z,90.73
2018-12-12T19:35:53.771Z,90.78
2018-12-12T19:38:21.320Z,91.02
2018-12-12T19:40:48.990Z,91.06
2018-12-12T19:43:17.593Z,91.47
2018-12-12T19:45:45.204Z,91.41
2018-12-12T19:48:12.890Z,91.81
2018-12-12T19:50:40.527Z,91.66
2018-12-12T19:53:08.139Z,91.68
2018-12-12T19:55:36.000Z,91.86
2018-12-12T19:58:03.597Z,92.41
2018-12-12T20:00:31.209Z,92.45
2018-12-12T20:02:59.139Z,91.97
2018-12-12T20:05:26.757Z,92.04
2018-12-12T20:07:54.502Z,92.23
2018-12-12T20:10:22.153Z,91.69
2018-12-12T20:12:49.747Z,91.71
2018-12-12T20:15:22.811Z,91.50
2018-12-12T20:17:50.411Z,91.39
2018-12-12T20:20:18.034Z,91.55
2018-12-12T20:22:45.842Z,91.53
2018-12-12T20:25:13.446Z,91.69
2018-12-12T20:27:41.796Z,91.50
2018-12-12T20:30:09.646Z,91.54
2018-12-12T20:32:37.258Z,91.50
2018-12-12T20:35:04.861Z,91.25
2018-12-12T20:37:32.475Z,91.66
2018-12-12T20:40:00.094Z,91.24
2018-12-12T20:42:27.699Z,91.59
2018-12-12T20:44:55.310Z,91.48
2018-12-12T20:47:22.936Z,92.04
2018-12-12T20:49:50.638Z,92.09
2018-12-12T20:52:18.255Z,91.75
2018-12-12T20:54:45.862Z,91.57
2018-12-12T20:57:13.473Z,91.63
2018-12-12T20:59:41.029Z,91.42
2018-12-12T21:02:08.684Z,91.33
2018-12-12T21:04:36.297Z,91.57
2018-12-12T21:07:04.391Z,91.00
2018-12-12T21:09:32.032Z,90.85
2018-12-12T21:11:59.641Z,90.52
2018-12-12T21:14:27.242Z,90.93
2018-12-12T21:16:54.908Z,90.27
2018-12-12T21:19:23.560Z,90.72
2018-12-12T21:21:51.134Z,90.62
2018-12-12T21:24:18.750Z,91.09
2018-12-12T21:26:46.397Z,91.22
2018-12-12T21:29:13.967Z,90.32
2018-12-12T21:31:41.560Z,90.16
2018-12-12T21:34:09.164Z,90.30
2018-12-12T21:36:36.776Z,89.99
2018-12-12T21:39:05.578Z,89.69
2018-12-12T21:41:33.343Z,89.48
2018-12-12T21:44:00.900Z,89.52
2018-12-12T21:46:28.555Z,89.34
2018-12-12T21:48:56.127Z,89.29
2018-12-12T21:51:24.045Z,89.62
2018-12-12T21:53:51.629Z,89.30
2018-12-12T21:56:19.282Z,89.49
2018-12-12T21:58:47.252Z,89.47
2018-12-12T22:01:14.853Z,89.17
2018-12-12T22:03:42.576Z,89.07
2018-12-12T22:06:10.243Z,88.40
2018-12-12T22:08:37.822Z,88.30
2018-12-12T22:11:05.448Z,88.51
2018-12-12T22:13:33.098Z,87.92
2018-12-12T22:16:00.791Z,88.27
2018-12-12T22:18:28.809Z,88.32
2018-12-12T22:20:56.377Z,88.25
2018-12-12T22:23:24.010Z,88.53
2018-12-12T22:25:52.018Z,88.44
2018-12-12T22:28:19.593Z,88.23
2018-12-12T22:30:47.133Z,88.20
2018-12-12T22:33:15.173Z,88.42
2018-12-12T22:35:42.791Z,88.39
2018-12-12T22:38:10.485Z,88.37
2018-12-12T22:40:38.158Z,88.21
2018-12-12T22:43:05.811Z,87.53
2018-12-12T22:45:34.946Z,87.36
2018-12-12T22:48:02.543Z,87.55
2018-12-12T22:50:30.194Z,87.56
2018-12-12T22:52:57.770Z,86.81
2018-12-12T22:55:25.368Z,85.42
2018-12-12T22:57:53.081Z,83.01
2018-12-12T23:00:26.357Z,82.63
2018-12-12T23:02:54.427Z,81.62
2018-12-12T23:05:22.080Z,80.87
2018-12-12T23:07:49.703Z,80.38
2018-12-12T23:10:17.308Z,79.68
2018-12-12T23:12:44.996Z,79.91
2018-12-12T23:15:12.853Z,79.50
2018-12-12T23:17:41.012Z,78.74
2018-12-12T23:20:08.700Z,79.14
2018-12-12T23:22:36.359Z,78.63
2018-12-12T23:25:04.310Z,78.84
2018-12-12T23:27:31.898Z,79.00
2018-12-12T23:29:59.790Z,79.05
2018-12-12T23:32:27.354Z,77.84
2018-12-12T23:34:54.940Z,77.77
2018-12-12T23:37:22.546Z,78.96
2018-12-12T23:39:50.115Z,78.86
2018-12-12T23:42:17.697Z,77.96
2018-12-12T23:44:45.303Z,78.66
2018-12-12T23:47:12.973Z,77.91
2018-12-12T23:49:41.033Z,77.81
2018-12-12T23:52:08.626Z,78.78
2018-12-12T23:54:36.178Z,79.49
2018-12-12T23:57:03.786Z,79.81
2018-12-12T23:59:31.345Z,79.17
